createdAt,value
2022-11-21T00:00:16.976Z,3.93
2022-11-21T00:01:16.438Z,3.95
2022-11-21T00:02:17.048Z,3.99
2022-11-21T00:03:16.611Z,3.99
2022-11-21T00:04:17.113Z,3.95
2022-11-21T00:05:16.630Z,3.98
2022-11-21T00:06:17.131Z,4.05
2022-11-21T00:07:16.683Z,4.08
2022-11-21T00:08:17.309Z,4.08
2022-11-21T00:09:16.798Z,4.06
2022-11-21T00:10:17.298Z,4.09
2022-11-21T00:11:16.828Z,4.09
2022-11-21T00:12:16.461Z,4.10
2022-11-21T00:13:16.965Z,4.13
2022-11-21T00:14:16.459Z,4.14
2022-11-21T00:15:16.949Z,4.17
2022-11-21T00:16:16.449Z,4.16
2022-11-21T00:17:16.941Z,4.17
2022-11-21T00:18:16.461Z,4.16
2022-11-21T00:19:16.926Z,4.14
2022-11-21T00:20:16.433Z,4.17
2022-11-21T00:21:16.914Z,4.21
2022-11-21T00:22:16.329Z,4.23
2022-11-21T00:23:16.818Z,4.21
2022-11-21T00:24:17.319Z,4.17
2022-11-21T00:25:16.829Z,4.20
2022-11-21T00:26:16.336Z,4.21
2022-11-21T00:27:16.859Z,4.31
2022-11-21T00:28:16.345Z,4.31
2022-11-21T00:29:16.822Z,4.36
2022-11-21T00:30:17.303Z,4.37
2022-11-21T00:31:16.764Z,4.37
2022-11-21T00:32:16.768Z,4.37
2022-11-21T00:33:17.284Z,4.36
2022-11-21T00:34:16.790Z,4.31
2022-11-21T00:35:17.271Z,4.30
2022-11-21T00:36:16.764Z,4.27
2022-11-21T00:37:17.264Z,4.31
2022-11-21T00:38:16.756Z,4.30
2022-11-21T00:39:17.225Z,4.30
2022-11-21T00:40:16.720Z,4.30
2022-11-21T00:41:17.409Z,4.24
2022-11-21T00:42:16.606Z,4.24
2022-11-21T00:43:17.071Z,4.21
2022-11-21T00:44:16.534Z,4.30
2022-11-21T00:45:21.266Z,4.31
2022-11-21T00:46:17.082Z,4.28
2022-11-21T00:47:16.532Z,4.27
2022-11-21T00:48:17.025Z,4.30
2022-11-21T00:49:16.497Z,4.33
2022-11-21T00:50:16.975Z,4.33
2022-11-21T00:51:16.476Z,4.31
2022-11-21T00:52:17.117Z,4.37
2022-11-21T00:53:16.602Z,4.43
2022-11-21T00:54:17.091Z,4.41
2022-11-21T00:55:16.593Z,4.44
2022-11-21T00:56:17.051Z,4.54
2022-11-21T00:57:16.534Z,4.54
2022-11-21T00:58:17.022Z,4.57
2022-11-21T00:59:16.496Z,4.57
2022-11-21T01:00:16.991Z,4.67
2022-11-21T01:01:16.562Z,4.58
2022-11-21T01:02:16.744Z,4.61
2022-11-21T01:03:17.246Z,4.57
2022-11-21T01:04:16.725Z,4.63
2022-11-21T01:05:17.216Z,4.65
2022-11-21T01:06:16.711Z,4.64
2022-11-21T01:07:17.232Z,4.72
2022-11-21T01:08:16.804Z,4.71
2022-11-21T01:09:17.306Z,4.85
2022-11-21T01:10:16.785Z,4.82
2022-11-21T01:11:17.288Z,4.84
2022-11-21T01:12:16.722Z,4.91
2022-11-21T01:13:17.187Z,4.93
2022-11-21T01:14:16.669Z,4.93
2022-11-21T01:15:17.160Z,4.93
2022-11-21T01:16:16.639Z,4.96
2022-11-21T01:17:17.128Z,4.93
2022-11-21T01:18:16.641Z,4.93
2022-11-21T01:19:17.147Z,4.93
2022-11-21T01:20:16.626Z,4.98
2022-11-21T01:21:17.126Z,4.96
2022-11-21T01:22:16.563Z,5.02
2022-11-21T01:23:17.063Z,5.02
2022-11-21T01:24:16.539Z,5.00
2022-11-21T01:25:17.022Z,5.05
2022-11-21T01:26:16.488Z,5.03
2022-11-21T01:27:16.956Z,5.02
2022-11-21T01:28:16.429Z,4.99
2022-11-21T01:29:16.906Z,4.99
2022-11-21T01:30:16.419Z,4.98
2022-11-21T01:31:16.906Z,4.95
2022-11-21T01:32:17.207Z,5.02
2022-11-21T01:33:16.849Z,5.00
2022-11-21T01:34:16.332Z,5.03
2022-11-21T01:35:16.800Z,4.99
2022-11-21T01:36:17.429Z,5.03
2022-11-21T01:37:16.914Z,5.00
2022-11-21T01:38:16.395Z,5.02
2022-11-21T01:39:16.845Z,4.99
2022-11-21T01:40:16.322Z,4.99
2022-11-21T01:41:16.796Z,4.98
2022-11-21T01:42:17.051Z,4.96
2022-11-21T01:43:16.540Z,4.96
2022-11-21T01:44:17.038Z,4.99
2022-11-21T01:45:16.544Z,4.99
2022-11-21T01:46:17.022Z,5.05
2022-11-21T01:47:16.526Z,5.02
2022-11-21T01:48:16.998Z,5.03
2022-11-21T01:49:16.479Z,5.02
2022-11-21T01:50:16.990Z,5.05
2022-11-21T01:51:16.465Z,4.99
2022-11-21T01:52:17.021Z,4.99
2022-11-21T01:53:16.488Z,5.07
2022-11-21T01:54:16.955Z,5.13
2022-11-21T01:55:16.431Z,5.14
2022-11-21T01:56:16.900Z,5.12
2022-11-21T01:57:16.367Z,5.22
2022-11-21T01:58:16.855Z,5.22
2022-11-21T01:59:16.381Z,5.19
2022-11-21T02:00:16.865Z,5.14
2022-11-21T02:01:16.408Z,5.17
2022-11-21T02:02:16.612Z,5.19
2022-11-21T02:03:17.105Z,5.20
2022-11-21T02:04:16.586Z,5.13
2022-11-21T02:05:17.083Z,5.17
2022-11-21T02:06:16.545Z,5.12
2022-11-21T02:07:17.020Z,5.12
2022-11-21T02:08:16.565Z,5.12
2022-11-21T02:09:17.040Z,5.09
2022-11-21T02:10:16.511Z,5.16
2022-11-21T02:11:16.968Z,5.13
2022-11-21T02:12:16.626Z,5.14
2022-11-21T02:13:17.110Z,5.14
2022-11-21T02:14:16.620Z,5.23
2022-11-21T02:15:17.139Z,5.22
2022-11-21T02:16:16.612Z,5.22
2022-11-21T02:17:17.097Z,5.17
2022-11-21T02:18:16.595Z,5.09
2022-11-21T02:19:17.057Z,5.09
2022-11-21T02:20:16.544Z,5.09
2022-11-21T02:21:17.015Z,5.07
2022-11-21T02:22:16.386Z,5.09
2022-11-21T02:23:16.853Z,5.10
2022-11-21T02:24:16.312Z,5.09
2022-11-21T02:25:16.782Z,5.10
2022-11-21T02:26:17.268Z,5.05
2022-11-21T02:27:16.771Z,5.09
2022-11-21T02:28:17.287Z,5.12
2022-11-21T02:29:16.772Z,5.06
2022-11-21T02:30:17.253Z,5.02
2022-11-21T02:31:16.741Z,5.00
2022-11-21T02:32:16.512Z,5.02
2022-11-21T02:33:16.967Z,5.03
2022-11-21T02:34:16.424Z,5.02
2022-11-21T02:35:16.903Z,5.02
2022-11-21T02:36:16.411Z,5.03
2022-11-21T02:37:16.892Z,5.05
2022-11-21T02:38:16.353Z,5.10
2022-11-21T02:39:16.864Z,5.09
2022-11-21T02:40:16.338Z,5.09
2022-11-21T02:41:16.805Z,5.10
2022-11-21T02:42:17.178Z,5.12
2022-11-21T02:43:16.655Z,5.16
2022-11-21T02:44:17.131Z,5.20
2022-11-21T02:45:16.613Z,5.19
2022-11-21T02:46:17.114Z,5.14
2022-11-21T02:47:16.617Z,5.09
2022-11-21T02:48:17.092Z,5.12
2022-11-21T02:49:16.537Z,5.16
2022-11-21T02:50:17.027Z,5.14
2022-11-21T02:51:16.502Z,5.07
2022-11-21T02:52:16.373Z,5.06
2022-11-21T02:53:16.858Z,5.09
2022-11-21T02:54:16.346Z,5.09
2022-11-21T02:55:16.829Z,5.10
2022-11-21T02:56:16.302Z,5.09
2022-11-21T02:57:16.444Z,5.05
2022-11-21T02:58:16.927Z,5.05
2022-11-21T02:59:16.440Z,5.00
2022-11-21T03:00:16.945Z,5.02
2022-11-21T03:01:16.474Z,5.00
2022-11-21T03:02:16.752Z,5.02
2022-11-21T03:03:17.232Z,5.02
2022-11-21T03:04:16.704Z,5.03
2022-11-21T03:05:17.162Z,5.00
2022-11-21T03:06:16.611Z,5.03
2022-11-21T03:07:17.125Z,5.06
2022-11-21T03:08:16.679Z,5.00
2022-11-21T03:09:17.178Z,5.03
2022-11-21T03:10:16.651Z,5.02
2022-11-21T03:11:17.137Z,5.02
2022-11-21T03:12:16.810Z,5.02
2022-11-21T03:13:17.320Z,4.99
2022-11-21T03:14:16.829Z,5.00
2022-11-21T03:15:17.326Z,4.95
2022-11-21T03:16:16.834Z,4.95
2022-11-21T03:17:16.314Z,4.96
2022-11-21T03:18:16.804Z,4.92
2022-11-21T03:19:17.269Z,4.95
2022-11-21T03:20:16.741Z,4.96
2022-11-21T03:21:17.234Z,5.00
2022-11-21T03:22:16.631Z,4.98
2022-11-21T03:23:17.156Z,4.95
2022-11-21T03:24:16.652Z,4.93
2022-11-21T03:25:17.144Z,4.93
2022-11-21T03:26:16.636Z,4.92
2022-11-21T03:27:17.138Z,4.92
2022-11-21T03:28:16.629Z,4.92
2022-11-21T03:29:17.090Z,4.91
2022-11-21T03:30:16.590Z,4.89
2022-11-21T03:31:17.104Z,4.95
2022-11-21T03:32:16.368Z,4.93
2022-11-21T03:33:16.826Z,4.92
2022-11-21T03:34:17.296Z,4.96
2022-11-21T03:35:16.768Z,4.91
2022-11-21T03:36:17.247Z,4.92
2022-11-21T03:37:16.348Z,4.92
2022-11-21T03:38:16.827Z,4.89
2022-11-21T03:39:16.318Z,4.89
2022-11-21T03:40:16.813Z,4.88
2022-11-21T03:41:17.285Z,4.86
2022-11-21T03:42:16.460Z,4.86
2022-11-21T03:43:16.936Z,4.89
2022-11-21T03:44:16.395Z,4.92
2022-11-21T03:45:16.867Z,4.95
2022-11-21T03:46:16.362Z,4.92
2022-11-21T03:47:16.850Z,4.91
2022-11-21T03:48:16.319Z,4.93
2022-11-21T03:49:16.805Z,4.98
2022-11-21T03:50:17.290Z,4.93
2022-11-21T03:51:16.794Z,4.95
2022-11-21T03:52:16.612Z,4.95
2022-11-21T03:53:17.083Z,4.99
2022-11-21T03:54:16.569Z,5.00
2022-11-21T03:55:17.060Z,4.96
2022-11-21T03:56:16.569Z,4.95
2022-11-21T03:57:17.058Z,4.93
2022-11-21T03:58:16.537Z,4.93
2022-11-21T03:59:16.999Z,4.93
2022-11-21T04:00:16.469Z,4.92
2022-11-21T04:01:16.954Z,4.92
2022-11-21T04:02:16.367Z,4.95
2022-11-21T04:03:16.856Z,4.95
2022-11-21T04:04:16.337Z,4.98
2022-11-21T04:05:16.820Z,4.96
2022-11-21T04:06:16.300Z,4.96
2022-11-21T04:07:16.799Z,4.99
2022-11-21T04:08:16.399Z,4.96
2022-11-21T04:09:16.916Z,4.99
2022-11-21T04:10:16.371Z,5.00
2022-11-21T04:11:16.871Z,4.99
2022-11-21T04:12:17.183Z,4.98
2022-11-21T04:13:16.668Z,5.00
2022-11-21T04:14:17.157Z,5.00
2022-11-21T04:15:16.631Z,4.99
2022-11-21T04:16:17.104Z,4.98
2022-11-21T04:17:16.580Z,4.99
2022-11-21T04:18:17.062Z,4.98
2022-11-21T04:19:17.276Z,4.99
2022-11-21T04:20:16.799Z,4.95
2022-11-21T04:21:17.307Z,4.96
2022-11-21T04:22:16.603Z,4.95
2022-11-21T04:23:17.090Z,4.99
2022-11-21T04:24:16.563Z,4.99
2022-11-21T04:25:17.039Z,5.05
2022-11-21T04:26:16.507Z,5.00
2022-11-21T04:27:16.976Z,4.98
2022-11-21T04:28:16.435Z,5.00
2022-11-21T04:29:16.898Z,5.02
2022-11-21T04:30:16.384Z,5.02
2022-11-21T04:31:16.888Z,5.06
2022-11-21T04:32:17.194Z,5.02
2022-11-21T04:33:16.679Z,5.03
2022-11-21T04:34:17.177Z,4.99
2022-11-21T04:35:16.683Z,4.99
2022-11-21T04:36:17.181Z,5.00
2022-11-21T04:37:16.755Z,5.03
2022-11-21T04:38:16.331Z,5.02
2022-11-21T04:39:16.841Z,4.98
2022-11-21T04:40:16.334Z,5.05
2022-11-21T04:41:16.780Z,5.02
2022-11-21T04:42:17.261Z,4.99
2022-11-21T04:43:16.742Z,4.99
2022-11-21T04:44:17.259Z,5.05
2022-11-21T04:45:16.726Z,5.03
2022-11-21T04:46:17.304Z,5.02
2022-11-21T04:47:16.825Z,5.02
2022-11-21T04:48:16.305Z,5.09
2022-11-21T04:49:16.781Z,5.07
2022-11-21T04:50:17.277Z,5.05
2022-11-21T04:51:16.762Z,5.10
2022-11-21T04:52:16.618Z,5.09
2022-11-21T04:53:17.104Z,5.10
2022-11-21T04:54:16.556Z,5.10
2022-11-21T04:55:17.024Z,5.12
2022-11-21T04:56:16.677Z,5.14
2022-11-21T04:57:17.257Z,5.16
2022-11-21T04:58:16.732Z,5.16
2022-11-21T04:59:17.211Z,5.17
2022-11-21T05:00:19.650Z,5.19
2022-11-21T05:01:17.057Z,5.20
2022-11-21T05:02:16.578Z,5.24
2022-11-21T05:03:17.056Z,5.23
2022-11-21T05:04:16.523Z,5.23
2022-11-21T05:05:17.014Z,5.17
2022-11-21T05:06:16.493Z,5.14
2022-11-21T05:07:17.012Z,5.23
2022-11-21T05:08:16.577Z,5.23
2022-11-21T05:09:17.074Z,5.27
2022-11-21T05:10:16.548Z,5.19
2022-11-21T05:11:17.025Z,5.16
2022-11-21T05:12:16.764Z,5.17
2022-11-21T05:13:17.296Z,5.13
2022-11-21T05:14:16.774Z,5.20
2022-11-21T05:15:20.399Z,5.19
2022-11-21T05:16:16.526Z,5.19
2022-11-21T05:17:17.036Z,5.22
2022-11-21T05:18:16.526Z,5.24
2022-11-21T05:19:17.011Z,5.23
2022-11-21T05:20:16.509Z,5.26
2022-11-21T05:21:16.976Z,5.19
2022-11-21T05:22:17.249Z,5.24
2022-11-21T05:23:16.773Z,5.27
2022-11-21T05:24:17.255Z,5.24
2022-11-21T05:25:16.798Z,5.26
2022-11-21T05:26:16.293Z,5.23
2022-11-21T05:27:16.758Z,5.24
2022-11-21T05:28:17.225Z,5.20
2022-11-21T05:29:16.708Z,5.23
2022-11-21T05:30:17.199Z,5.28
2022-11-21T05:31:16.690Z,5.27
2022-11-21T05:32:16.417Z,5.28
2022-11-21T05:33:16.894Z,5.23
2022-11-21T05:34:16.377Z,5.26
2022-11-21T05:35:16.869Z,5.26
2022-11-21T05:36:16.328Z,5.28
2022-11-21T05:37:16.789Z,5.25
2022-11-21T05:38:17.259Z,5.19
2022-11-21T05:39:16.720Z,5.22
2022-11-21T05:40:17.228Z,5.22
2022-11-21T05:41:16.807Z,5.24
2022-11-21T05:42:17.144Z,5.26
2022-11-21T05:43:16.597Z,5.26
2022-11-21T05:44:17.068Z,5.22
2022-11-21T05:45:16.566Z,5.20
2022-11-21T05:46:17.057Z,5.17
2022-11-21T05:47:16.733Z,5.19
2022-11-21T05:48:17.210Z,5.20
2022-11-21T05:49:16.682Z,5.14
2022-11-21T05:50:17.159Z,5.16
2022-11-21T05:51:16.612Z,5.13
2022-11-21T05:52:16.348Z,5.14
2022-11-21T05:53:16.828Z,5.14
2022-11-21T05:54:16.312Z,5.17
2022-11-21T05:55:16.840Z,5.16
2022-11-21T05:56:16.299Z,5.16
2022-11-21T05:57:16.797Z,5.14
2022-11-21T05:58:17.303Z,5.13
2022-11-21T05:59:16.781Z,5.13
2022-11-21T06:00:17.252Z,5.13
2022-11-21T06:01:16.752Z,5.17
2022-11-21T06:02:17.194Z,5.17
2022-11-21T06:03:16.722Z,5.14
2022-11-21T06:04:17.257Z,5.13
2022-11-21T06:05:16.721Z,5.14
2022-11-21T06:06:20.996Z,5.12
2022-11-21T06:07:16.463Z,5.12
2022-11-21T06:08:17.097Z,5.10
2022-11-21T06:09:16.586Z,5.12
2022-11-21T06:10:17.064Z,5.07
2022-11-21T06:11:16.545Z,5.05
2022-11-21T06:12:19.316Z,5.07
2022-11-21T06:13:16.651Z,5.05
2022-11-21T06:14:17.169Z,5.00
2022-11-21T06:15:16.724Z,5.02
2022-11-21T06:16:17.261Z,5.02
2022-11-21T06:17:16.716Z,5.00
2022-11-21T06:18:17.224Z,4.99
2022-11-21T06:19:16.710Z,4.95
2022-11-21T06:20:17.202Z,4.96
2022-11-21T06:21:16.712Z,4.92
2022-11-21T06:22:17.106Z,4.92
2022-11-21T06:23:16.597Z,4.92
2022-11-21T06:24:21.872Z,4.91
2022-11-21T06:25:16.953Z,4.92
2022-11-21T06:26:16.440Z,4.88
2022-11-21T06:27:16.911Z,4.88
2022-11-21T06:28:16.377Z,4.89
2022-11-21T06:29:16.860Z,4.89
2022-11-21T06:30:20.760Z,4.89
2022-11-21T06:31:16.873Z,4.89
2022-11-21T06:32:17.262Z,4.89
2022-11-21T06:33:16.838Z,4.88
2022-11-21T06:34:16.337Z,4.86
2022-11-21T06:35:16.804Z,4.86
2022-11-21T06:36:17.330Z,4.84
2022-11-21T06:37:16.812Z,4.82
2022-11-21T06:38:16.292Z,4.85
2022-11-21T06:39:16.768Z,4.82
2022-11-21T06:40:17.284Z,4.84
2022-11-21T06:41:16.802Z,4.82
2022-11-21T06:42:16.792Z,4.86
2022-11-21T06:43:17.285Z,4.85
2022-11-21T06:44:16.773Z,4.85
2022-11-21T06:45:17.250Z,4.84
2022-11-21T06:46:16.713Z,4.84
2022-11-21T06:47:17.188Z,4.78
2022-11-21T06:48:16.704Z,4.78
2022-11-21T06:49:17.179Z,4.79
2022-11-21T06:50:16.678Z,4.75
2022-11-21T06:51:17.263Z,4.79
2022-11-21T06:52:16.707Z,4.79
2022-11-21T06:53:17.177Z,4.75
2022-11-21T06:54:17.001Z,4.82
2022-11-21T06:55:16.745Z,4.82
2022-11-21T06:56:17.208Z,4.81
2022-11-21T06:57:16.676Z,4.79
2022-11-21T06:58:17.133Z,4.78
2022-11-21T06:59:16.639Z,4.86
2022-11-21T07:00:17.116Z,4.88
2022-11-21T07:01:16.632Z,4.88
2022-11-21T07:02:16.520Z,4.92
2022-11-21T07:03:17.006Z,4.92
2022-11-21T07:04:16.534Z,4.88
2022-11-21T07:05:17.022Z,4.89
2022-11-21T07:06:16.517Z,4.86
2022-11-21T07:07:17.059Z,4.86
2022-11-21T07:08:16.644Z,4.86
2022-11-21T07:09:32.599Z,4.84
2022-11-21T07:10:16.462Z,4.91
2022-11-21T07:11:25.429Z,4.92
2022-11-21T07:12:16.360Z,4.89
2022-11-21T07:13:16.838Z,4.93
2022-11-21T07:14:16.352Z,4.98
2022-11-21T07:15:16.845Z,4.96
2022-11-21T07:16:16.328Z,4.95
2022-11-21T07:17:16.839Z,4.96
2022-11-21T07:18:16.309Z,4.93
2022-11-21T07:19:16.787Z,4.92
2022-11-21T07:20:17.275Z,4.85
2022-11-21T07:21:16.778Z,4.86
2022-11-21T07:22:16.899Z,4.84
2022-11-21T07:23:16.356Z,4.84
2022-11-21T07:24:16.853Z,4.84
2022-11-21T07:25:16.375Z,4.86
2022-11-21T07:26:16.865Z,4.81
2022-11-21T07:27:16.347Z,4.84
2022-11-21T07:28:16.850Z,4.88
2022-11-21T07:29:16.364Z,4.85
2022-11-21T07:30:16.878Z,4.88
2022-11-21T07:31:16.438Z,4.86
2022-11-21T07:32:16.892Z,4.86
2022-11-21T07:33:16.350Z,4.86
2022-11-21T07:34:16.823Z,4.91
2022-11-21T07:35:17.283Z,4.93
2022-11-21T07:36:16.745Z,4.95
2022-11-21T07:37:17.221Z,4.95
2022-11-21T07:38:16.677Z,4.96
2022-11-21T07:39:17.159Z,4.96
2022-11-21T07:40:16.650Z,4.99
2022-11-21T07:41:17.180Z,4.99
2022-11-21T07:42:16.809Z,5.02
2022-11-21T07:43:17.301Z,5.07
2022-11-21T07:44:16.779Z,5.07
2022-11-21T07:45:17.317Z,5.03
2022-11-21T07:46:16.780Z,5.10
2022-11-21T07:47:17.246Z,5.12
2022-11-21T07:48:16.725Z,5.14
2022-11-21T07:49:17.220Z,5.17
2022-11-21T07:50:16.690Z,5.20
2022-11-21T07:51:17.203Z,5.26
2022-11-21T07:52:16.637Z,5.24
2022-11-21T07:53:17.126Z,5.24
2022-11-21T07:54:16.644Z,5.30
2022-11-21T07:55:17.152Z,5.33
2022-11-21T07:56:16.613Z,5.28
2022-11-21T07:57:17.128Z,5.31
2022-11-21T07:58:16.625Z,5.33
2022-11-21T07:59:17.130Z,5.33
2022-11-21T08:00:16.593Z,5.33
2022-11-21T08:01:17.156Z,5.41
2022-11-21T08:02:16.542Z,5.37
2022-11-21T08:03:17.108Z,5.43
2022-11-21T08:04:16.578Z,5.45
2022-11-21T08:05:17.086Z,5.48
2022-11-21T08:06:16.561Z,5.48
2022-11-21T08:07:17.045Z,5.54
2022-11-21T08:08:16.638Z,5.55
2022-11-21T08:09:17.146Z,5.55
2022-11-21T08:10:16.648Z,5.60
2022-11-21T08:11:17.193Z,5.57
2022-11-21T08:12:16.865Z,5.60
2022-11-21T08:13:16.348Z,5.62
2022-11-21T08:14:16.963Z,5.68
2022-11-21T08:15:16.446Z,5.65
2022-11-21T08:16:16.909Z,5.67
2022-11-21T08:17:16.400Z,5.70
2022-11-21T08:18:16.876Z,5.72
2022-11-21T08:19:16.350Z,5.74
2022-11-21T08:20:16.845Z,5.81
2022-11-21T08:21:19.731Z,5.79
2022-11-21T08:22:16.725Z,5.84
2022-11-21T08:23:17.237Z,5.81
2022-11-21T08:24:16.721Z,5.85
2022-11-21T08:25:17.233Z,5.84
2022-11-21T08:26:16.743Z,5.86
2022-11-21T08:27:17.206Z,5.86
2022-11-21T08:28:16.664Z,5.86
2022-11-21T08:29:17.139Z,5.91
2022-11-21T08:30:16.614Z,5.91
2022-11-21T08:31:17.136Z,5.91
2022-11-21T08:32:16.679Z,5.91
2022-11-21T08:33:17.198Z,5.91
2022-11-21T08:34:16.683Z,5.88
2022-11-21T08:35:17.161Z,5.79
2022-11-21T08:36:16.631Z,5.85
2022-11-21T08:37:17.122Z,5.88
2022-11-21T08:38:16.625Z,5.95
2022-11-21T08:39:17.127Z,5.95
2022-11-21T08:40:16.631Z,5.86
2022-11-21T08:41:17.870Z,5.89
2022-11-21T08:42:16.430Z,5.86
2022-11-21T08:43:16.908Z,5.89
2022-11-21T08:44:16.393Z,5.95
2022-11-21T08:45:16.878Z,6.00
2022-11-21T08:46:16.369Z,6.00
2022-11-21T08:47:16.845Z,6.09
2022-11-21T08:48:16.358Z,6.10
2022-11-21T08:49:16.847Z,6.20
2022-11-21T08:50:16.340Z,6.27
2022-11-21T08:51:16.821Z,6.30
2022-11-21T08:52:16.453Z,6.40
2022-11-21T08:53:16.933Z,6.40
2022-11-21T08:54:16.411Z,6.45
2022-11-21T08:55:17.045Z,6.45
2022-11-21T08:56:16.545Z,6.48
2022-11-21T08:57:17.019Z,6.47
2022-11-21T08:58:16.523Z,6.52
2022-11-21T08:59:17.041Z,6.52
2022-11-21T09:00:16.516Z,6.52
2022-11-21T09:01:17.058Z,6.54
2022-11-21T09:02:16.460Z,6.58
2022-11-21T09:03:21.809Z,6.59
2022-11-21T09:04:16.467Z,6.63
2022-11-21T09:05:16.981Z,6.65
2022-11-21T09:06:16.444Z,6.72
2022-11-21T09:07:16.945Z,6.68
2022-11-21T09:08:16.513Z,6.71
2022-11-21T09:09:20.734Z,6.72
2022-11-21T09:10:16.904Z,6.72
2022-11-21T09:11:16.367Z,6.71
2022-11-21T09:12:16.350Z,6.71
2022-11-21T09:13:16.863Z,6.69
2022-11-21T09:14:16.325Z,6.71
2022-11-21T09:15:16.807Z,6.67
2022-11-21T09:16:20.206Z,6.64
2022-11-21T09:17:17.286Z,6.63
2022-11-21T09:18:16.798Z,6.55
2022-11-21T09:19:17.314Z,6.61
2022-11-21T09:20:16.834Z,6.64
2022-11-21T09:21:16.456Z,6.63
2022-11-21T09:22:16.609Z,6.63
2022-11-21T09:23:17.111Z,6.61
2022-11-21T09:24:16.623Z,6.63
2022-11-21T09:25:17.099Z,6.65
2022-11-21T09:26:16.570Z,6.64
2022-11-21T09:27:17.026Z,6.71
2022-11-21T09:28:16.503Z,6.68
2022-11-21T09:29:17.008Z,6.78
2022-11-21T09:30:16.510Z,6.85
2022-11-21T09:31:16.977Z,6.91
2022-11-21T09:32:17.241Z,6.92
2022-11-21T09:33:16.825Z,6.86
2022-11-21T09:34:16.504Z,6.79
2022-11-21T09:35:17.012Z,6.75
2022-11-21T09:36:16.489Z,6.78
2022-11-21T09:37:16.990Z,6.81
2022-11-21T09:38:19.764Z,6.84
2022-11-21T09:39:16.727Z,6.76
2022-11-21T09:40:17.196Z,6.78
2022-11-21T09:41:16.692Z,6.81
2022-11-21T09:42:16.602Z,6.85
2022-11-21T09:43:17.150Z,6.79
2022-11-21T09:44:16.646Z,6.76
2022-11-21T09:45:17.135Z,6.76
2022-11-21T09:46:16.646Z,6.75
2022-11-21T09:47:17.138Z,6.67
2022-11-21T09:48:16.613Z,6.71
2022-11-21T09:49:17.146Z,6.72
2022-11-21T09:50:16.656Z,6.71
2022-11-21T09:51:17.271Z,6.74
2022-11-21T09:52:16.601Z,6.75
2022-11-21T09:53:17.077Z,6.76
2022-11-21T09:54:16.587Z,6.84
2022-11-21T09:55:17.076Z,6.78
2022-11-21T09:56:16.591Z,6.78
2022-11-21T09:57:17.092Z,6.67
2022-11-21T09:58:16.553Z,6.69
2022-11-21T09:59:17.056Z,6.65
2022-11-21T10:00:16.543Z,6.67
2022-11-21T10:01:17.112Z,6.65
2022-11-21T10:02:16.561Z,6.63
2022-11-21T10:03:22.116Z,6.58
2022-11-21T10:04:17.054Z,6.57
2022-11-21T10:05:16.522Z,6.61
2022-11-21T10:06:17.006Z,6.59
2022-11-21T10:07:16.558Z,6.63
2022-11-21T10:08:17.157Z,6.64
2022-11-21T10:09:16.667Z,6.67
2022-11-21T10:10:17.154Z,6.67
2022-11-21T10:11:19.863Z,6.72
2022-11-21T10:12:16.504Z,6.72
2022-11-21T10:13:16.982Z,6.68
2022-11-21T10:14:16.456Z,6.68
2022-11-21T10:15:16.978Z,6.68
2022-11-21T10:16:16.456Z,6.75
2022-11-21T10:17:16.935Z,6.74
2022-11-21T10:18:16.435Z,6.74
2022-11-21T10:19:16.913Z,6.75
2022-11-21T10:20:16.428Z,6.82
2022-11-21T10:21:16.911Z,6.88
2022-11-21T10:22:17.143Z,6.85
2022-11-21T10:23:16.634Z,6.86
2022-11-21T10:24:17.119Z,6.86
2022-11-21T10:25:16.593Z,6.86
2022-11-21T10:26:17.115Z,6.81
2022-11-21T10:27:16.675Z,6.78
2022-11-21T10:28:17.169Z,6.82
2022-11-21T10:29:16.646Z,6.79
2022-11-21T10:30:17.131Z,6.86
2022-11-21T10:31:16.634Z,6.86
2022-11-21T10:32:16.287Z,6.76
2022-11-21T10:33:16.761Z,6.82
2022-11-21T10:34:17.245Z,6.89
2022-11-21T10:35:16.754Z,6.81
2022-11-21T10:36:17.261Z,6.79
2022-11-21T10:37:16.749Z,6.79
2022-11-21T10:38:17.258Z,6.84
2022-11-21T10:39:16.747Z,6.78
2022-11-21T10:40:17.249Z,6.78
2022-11-21T10:41:16.738Z,6.79
2022-11-21T10:42:20.325Z,6.82
2022-11-21T10:43:17.309Z,6.88
2022-11-21T10:44:16.840Z,6.89
2022-11-21T10:45:16.315Z,6.92
2022-11-21T10:46:16.767Z,6.92
2022-11-21T10:47:17.238Z,6.89
2022-11-21T10:48:16.697Z,6.89
2022-11-21T10:49:17.192Z,6.84
2022-11-21T10:50:16.688Z,6.81
2022-11-21T10:51:17.206Z,6.82
2022-11-21T10:52:16.831Z,6.81
2022-11-21T10:53:16.312Z,6.86
2022-11-21T10:54:16.841Z,6.86
2022-11-21T10:55:16.316Z,6.86
2022-11-21T10:56:16.822Z,6.85
2022-11-21T10:57:16.315Z,6.88
2022-11-21T10:58:16.805Z,6.91
2022-11-21T10:59:17.282Z,6.86
2022-11-21T11:00:16.801Z,6.86
2022-11-21T11:01:16.551Z,6.84
2022-11-21T11:02:16.782Z,6.79
2022-11-21T11:03:17.269Z,6.84
2022-11-21T11:04:27.589Z,6.79
2022-11-21T11:05:16.593Z,6.82
2022-11-21T11:06:17.104Z,6.79
2022-11-21T11:07:16.638Z,6.82
2022-11-21T11:08:17.204Z,6.82
2022-11-21T11:09:17.042Z,6.88
2022-11-21T11:10:16.605Z,6.81
2022-11-21T11:11:17.260Z,6.85
2022-11-21T11:12:16.797Z,6.95
2022-11-21T11:13:44.318Z,6.94
2022-11-21T11:14:16.715Z,6.95
2022-11-21T11:15:17.260Z,7.00
2022-11-21T11:16:16.719Z,7.03
2022-11-21T11:17:17.204Z,7.00
2022-11-21T11:18:16.682Z,7.06
2022-11-21T11:19:17.181Z,7.06
2022-11-21T11:20:16.674Z,6.99
2022-11-21T11:21:17.197Z,6.92
2022-11-21T11:22:16.569Z,6.95
2022-11-21T11:23:17.061Z,6.92
2022-11-21T11:24:16.537Z,6.94
2022-11-21T11:25:17.076Z,7.03
2022-11-21T11:26:16.520Z,7.03
2022-11-21T11:27:16.990Z,7.09
2022-11-21T11:28:16.470Z,7.09
2022-11-21T11:29:16.973Z,7.09
2022-11-21T11:30:16.433Z,7.15
2022-11-21T11:31:16.925Z,7.12
2022-11-21T11:32:21.119Z,7.09
2022-11-21T11:33:16.563Z,7.10
2022-11-21T11:34:17.094Z,7.15
2022-11-21T11:35:16.586Z,7.17
2022-11-21T11:36:17.067Z,7.13
2022-11-21T11:37:16.541Z,7.09
2022-11-21T11:38:17.021Z,7.12
2022-11-21T11:39:16.504Z,7.03
2022-11-21T11:40:17.033Z,7.02
2022-11-21T11:41:16.502Z,7.07
2022-11-21T11:42:17.204Z,7.12
2022-11-21T11:43:16.723Z,7.13
2022-11-21T11:44:17.208Z,7.17
2022-11-21T11:45:16.697Z,7.16
2022-11-21T11:46:17.218Z,7.16
2022-11-21T11:47:16.707Z,7.17
2022-11-21T11:48:17.196Z,7.26
2022-11-21T11:49:20.629Z,7.29
2022-11-21T11:50:17.145Z,7.43
2022-11-21T11:51:16.634Z,7.54
2022-11-21T11:52:17.002Z,7.41
2022-11-21T11:53:16.457Z,7.38
2022-11-21T11:54:16.968Z,7.35
2022-11-21T11:55:16.462Z,7.33
2022-11-21T11:56:16.930Z,7.17
2022-11-21T11:57:16.397Z,7.15
2022-11-21T11:58:16.890Z,7.15
2022-11-21T11:59:16.413Z,7.12
2022-11-21T12:00:16.900Z,7.07
2022-11-21T12:01:16.410Z,6.96
2022-11-21T12:02:16.871Z,6.96
2022-11-21T12:03:16.483Z,6.99
2022-11-21T12:04:16.956Z,6.98
2022-11-21T12:05:16.441Z,6.92
2022-11-21T12:06:16.889Z,6.82
2022-11-21T12:08:20.364Z,6.86
2022-11-21T12:08:41.654Z,6.86
2022-11-21T12:09:16.408Z,6.86
2022-11-21T12:10:17.026Z,6.89
2022-11-21T12:11:18.190Z,6.92
2022-11-21T12:12:17.111Z,6.92
2022-11-21T12:13:16.611Z,6.88
2022-11-21T12:14:17.119Z,6.82
2022-11-21T12:15:16.606Z,6.82
2022-11-21T12:16:17.080Z,6.84
2022-11-21T12:17:16.617Z,6.81
2022-11-21T12:18:17.093Z,6.81
2022-11-21T12:19:16.609Z,6.84
2022-11-21T12:20:17.117Z,6.78
2022-11-21T12:21:16.612Z,6.69
2022-11-21T12:22:16.968Z,6.69
2022-11-21T12:23:16.462Z,6.68
2022-11-21T12:24:16.915Z,6.71
2022-11-21T12:25:16.420Z,6.71
2022-11-21T12:26:16.913Z,6.75
2022-11-21T12:27:16.426Z,6.88
2022-11-21T12:28:16.941Z,6.98
2022-11-21T12:29:16.457Z,6.98
2022-11-21T12:30:16.922Z,6.98
2022-11-21T12:31:16.393Z,7.12
2022-11-21T12:32:16.823Z,7.17
2022-11-21T12:33:16.333Z,7.12
2022-11-21T12:34:16.802Z,7.16
2022-11-21T12:35:17.285Z,7.16
2022-11-21T12:36:18.536Z,7.26
2022-11-21T12:37:16.515Z,7.26
2022-11-21T12:38:17.019Z,7.31
2022-11-21T12:39:16.485Z,7.45
2022-11-21T12:40:16.963Z,7.43
2022-11-21T12:41:16.440Z,7.31
2022-11-21T12:42:17.139Z,7.24
2022-11-21T12:43:16.639Z,7.07
2022-11-21T12:44:17.130Z,7.16
2022-11-21T12:45:16.617Z,7.23
2022-11-21T12:46:18.153Z,7.23
2022-11-21T12:47:16.653Z,7.34
2022-11-21T12:48:17.119Z,7.23
2022-11-21T12:49:16.581Z,7.16
2022-11-21T12:50:17.078Z,7.22
2022-11-21T12:51:16.551Z,7.24
2022-11-21T12:52:17.002Z,7.20
2022-11-21T12:53:16.520Z,7.19
2022-11-21T12:54:17.004Z,7.12
2022-11-21T12:55:16.478Z,7.23
2022-11-21T12:56:16.967Z,7.12
2022-11-21T12:57:16.468Z,7.05
2022-11-21T12:58:16.953Z,6.98
2022-11-21T12:59:16.440Z,6.95
2022-11-21T13:00:16.905Z,6.95
2022-11-21T13:01:21.016Z,6.92
2022-11-21T13:02:16.808Z,6.92
2022-11-21T13:03:17.260Z,6.99
2022-11-21T13:04:16.726Z,7.13
2022-11-21T13:05:17.246Z,6.99
2022-11-21T13:06:16.729Z,6.99
2022-11-21T13:07:17.260Z,7.06
2022-11-21T13:08:19.951Z,7.17
2022-11-21T13:09:16.385Z,7.23
2022-11-21T13:10:16.934Z,7.27
2022-11-21T13:11:16.425Z,7.35
2022-11-21T13:12:16.899Z,7.45
2022-11-21T13:13:16.394Z,7.54
2022-11-21T13:14:16.858Z,7.55
2022-11-21T13:15:16.348Z,7.63
2022-11-21T13:16:16.848Z,7.67
2022-11-21T13:17:16.305Z,7.64
2022-11-21T13:18:16.771Z,7.63